createdAt,value
2018-09-03T00:02:45.229Z,17.60
2018-09-03T00:07:48.918Z,18.20
2018-09-03T00:12:52.615Z,17.80
2018-09-03T00:17:56.958Z,17.00
2018-09-03T00:23:00.647Z,16.75
2018-09-03T00:28:04.582Z,15.75
2018-09-03T00:33:13.575Z,17.00
2018-09-03T00:38:22.508Z,13.50
2018-09-03T00:43:31.573Z,16.75
2018-09-03T00:48:35.270Z,16.00
2018-09-03T00:53:38.914Z,15.20
2018-09-03T00:58:42.552Z,19.00
2018-09-03T01:03:46.256Z,16.20
2018-09-03T01:08:49.948Z,15.75
2018-09-03T01:13:54.333Z,13.50
2018-09-03T01:18:58.361Z,14.00
2018-09-03T01:24:02.008Z,15.00
2018-09-03T01:29:05.783Z,14.00
2018-09-03T01:34:09.472Z,18.50
2018-09-03T01:39:13.134Z,15.00
2018-09-03T01:44:16.747Z,15.25
2018-09-03T01:49:20.443Z,14.75
2018-09-03T01:54:24.070Z,17.00
2018-09-03T01:59:27.820Z,15.25
2018-09-03T02:04:31.490Z,16.25
2018-09-03T02:09:35.153Z,15.00
2018-09-03T02:14:38.770Z,14.00
2018-09-03T02:19:45.395Z,13.75
2018-09-03T02:24:48.989Z,18.50
2018-09-03T02:29:52.615Z,18.00
2018-09-03T02:34:56.223Z,16.50
2018-09-03T02:39:59.902Z,16.60
2018-09-03T02:45:07.357Z,19.25
2018-09-03T02:50:10.974Z,16.20
2018-09-03T02:55:15.162Z,16.25
2018-09-03T03:00:18.817Z,16.00
2018-09-03T03:05:22.525Z,16.60
2018-09-03T03:10:26.192Z,17.25
2018-09-03T03:15:29.833Z,14.50
2018-09-03T03:20:33.484Z,18.20
2018-09-03T03:25:37.125Z,18.50
2018-09-03T03:30:40.756Z,18.20
2018-09-03T03:35:44.466Z,18.00
2018-09-03T03:40:48.242Z,19.00
2018-09-03T03:45:51.965Z,23.75
2018-09-03T03:50:55.636Z,25.60
2018-09-03T03:55:59.293Z,18.00
2018-09-03T04:01:02.923Z,20.25
2018-09-03T04:06:06.804Z,22.75
2018-09-03T04:11:10.436Z,21.00
2018-09-03T04:16:14.156Z,27.00
2018-09-03T04:21:17.855Z,24.60
2018-09-03T04:26:21.470Z,23.25
2018-09-03T04:31:25.148Z,24.00
2018-09-03T04:36:28.831Z,27.00
2018-09-03T04:41:32.482Z,26.75
2018-09-03T04:46:36.145Z,23.60
2018-09-03T04:51:39.822Z,22.25
2018-09-03T04:56:43.495Z,25.25
2018-09-03T05:01:47.238Z,23.60
2018-09-03T05:06:50.828Z,23.25
2018-09-03T05:11:54.491Z,26.50
2018-09-03T05:16:58.070Z,24.00
2018-09-03T05:22:01.707Z,24.60
2018-09-03T05:27:05.367Z,28.00
2018-09-03T05:32:09.034Z,29.00
2018-09-03T05:37:12.678Z,28.00
2018-09-03T05:42:16.358Z,31.75
2018-09-03T05:47:20.119Z,31.60
2018-09-03T05:52:23.739Z,30.20
2018-09-03T05:57:27.445Z,32.20
2018-09-03T06:02:31.079Z,32.00
2018-09-03T06:07:34.790Z,30.80
2018-09-03T06:12:38.969Z,32.60
2018-09-03T06:17:42.609Z,34.50
2018-09-03T06:22:49.221Z,35.00
2018-09-03T06:27:52.874Z,37.00
2018-09-03T06:32:56.541Z,31.50
2018-09-03T06:38:00.275Z,32.00
2018-09-03T06:43:03.934Z,33.80
2018-09-03T06:48:07.566Z,34.75
2018-09-03T06:53:11.178Z,38.00
2018-09-03T06:58:14.790Z,42.00
2018-09-03T07:03:18.542Z,42.00
2018-09-03T07:08:22.204Z,43.00
2018-09-03T07:13:25.866Z,43.40
2018-09-03T07:18:29.570Z,43.00
2018-09-03T07:23:33.213Z,46.75
2018-09-03T07:28:36.810Z,44.50
2018-09-03T07:33:40.449Z,44.75
2018-09-03T07:38:44.166Z,47.75
2018-09-03T07:43:47.852Z,48.40
2018-09-03T07:48:51.581Z,50.50
2018-09-03T07:53:55.244Z,50.75
2018-09-03T07:58:59.386Z,52.40
2018-09-03T08:04:03.068Z,53.20
2018-09-03T08:09:08.676Z,51.00
2018-09-03T08:14:12.542Z,52.50
2018-09-03T08:19:16.205Z,53.00
2018-09-03T08:24:19.853Z,53.75
2018-09-03T08:29:23.541Z,53.75
2018-09-03T08:34:27.293Z,52.00
2018-09-03T08:39:30.912Z,51.80
2018-09-03T08:44:34.522Z,53.50
2018-09-03T08:49:38.216Z,53.40
2018-09-03T08:54:42.006Z,53.00
2018-09-03T08:59:45.668Z,56.75
2018-09-03T09:04:49.345Z,54.00
2018-09-03T09:09:53.069Z,54.00
2018-09-03T09:14:56.706Z,55.80
2018-09-03T09:20:00.451Z,52.00
2018-09-03T09:25:05.834Z,53.60
2018-09-03T09:30:09.470Z,51.00
2018-09-03T09:35:13.156Z,51.00
2018-09-03T09:40:16.744Z,52.00
2018-09-03T09:45:20.356Z,47.75
2018-09-03T09:50:24.020Z,50.33
2018-09-03T09:55:27.711Z,51.00
2018-09-03T10:00:36.536Z,49.00
2018-09-03T10:05:40.145Z,49.25
2018-09-03T10:10:43.827Z,48.00
2018-09-03T10:15:47.531Z,47.00
2018-09-03T10:20:51.218Z,47.00
2018-09-03T10:25:54.877Z,48.20
2018-09-03T10:30:58.599Z,46.40
2018-09-03T10:36:02.356Z,44.75
2018-09-03T10:41:06.209Z,47.75
2018-09-03T10:46:09.840Z,46.00
2018-09-03T10:51:13.514Z,44.75
2018-09-03T10:56:17.187Z,44.00
2018-09-03T11:01:20.899Z,44.25
2018-09-03T11:06:24.566Z,46.25
2018-09-03T11:11:28.327Z,46.75
2018-09-03T11:16:32.606Z,46.80
2018-09-03T11:21:36.385Z,47.50
2018-09-03T11:26:39.915Z,44.00
2018-09-03T11:31:43.582Z,47.50
2018-09-03T11:36:47.196Z,44.75
2018-09-03T11:41:50.807Z,43.60
2018-09-03T11:46:54.552Z,42.25
2018-09-03T11:51:58.284Z,43.25
2018-09-03T11:57:02.051Z,41.50
2018-09-03T12:02:06.370Z,40.25
2018-09-03T12:07:10.046Z,40.80
2018-09-03T12:12:13.695Z,39.20
2018-09-03T12:17:17.414Z,40.50
2018-09-03T12:22:21.171Z,40.60
2018-09-03T12:27:24.835Z,39.25
2018-09-03T12:32:28.560Z,40.00
2018-09-03T12:37:32.515Z,37.50
2018-09-03T12:42:36.148Z,37.50
2018-09-03T12:47:39.950Z,40.80
2018-09-03T12:52:43.614Z,41.00
2018-09-03T12:57:47.319Z,39.50
2018-09-03T13:02:51.432Z,38.20
2018-09-03T13:07:54.999Z,39.00
2018-09-03T13:12:58.687Z,39.00
2018-09-03T13:18:02.357Z,42.00
2018-09-03T13:23:06.096Z,42.60
2018-09-03T13:28:09.775Z,39.60
2018-09-03T13:38:41.238Z,37.00
2018-09-03T13:43:44.912Z,39.80
2018-09-03T13:48:48.688Z,44.00
2018-09-03T13:53:52.363Z,40.75
2018-09-03T13:58:56.066Z,37.80
2018-09-03T14:03:59.722Z,40.75
2018-09-03T14:09:03.901Z,37.00
2018-09-03T14:14:07.565Z,37.00
2018-09-03T14:19:11.287Z,36.00
2018-09-03T14:24:14.969Z,36.50
2018-09-03T14:29:18.827Z,38.75
2018-09-03T14:34:22.560Z,39.50
2018-09-03T14:39:26.275Z,37.60
2018-09-03T14:44:30.027Z,37.00
2018-09-03T14:49:33.854Z,36.00
2018-09-03T14:54:37.477Z,35.75
2018-09-03T14:59:41.618Z,35.75
2018-09-03T15:04:45.322Z,37.00
2018-09-03T15:09:49.831Z,36.00
2018-09-03T15:14:53.542Z,38.00
2018-09-03T15:19:58.049Z,37.00
2018-09-03T15:25:07.325Z,38.75
2018-09-03T15:30:11.155Z,39.20
2018-09-03T15:35:15.342Z,36.00
2018-09-03T15:40:19.049Z,39.60
2018-09-03T15:45:22.702Z,36.80
2018-09-03T15:50:26.345Z,38.20
2018-09-03T15:55:30.078Z,38.50
2018-09-03T16:00:33.782Z,36.80
2018-09-03T16:05:37.552Z,36.80
2018-09-03T16:10:41.357Z,38.00
2018-09-03T16:15:45.063Z,40.25
2018-09-03T16:20:48.729Z,40.25
2018-09-03T16:25:52.411Z,39.25
2018-09-03T16:30:56.082Z,38.75
2018-09-03T16:35:59.824Z,41.50
2018-09-03T16:41:03.480Z,40.00
2018-09-03T16:46:07.133Z,38.75
2018-09-03T16:51:11.166Z,37.75
2018-09-03T16:56:14.798Z,37.00
2018-09-03T17:01:20.544Z,39.00
2018-09-03T17:06:24.106Z,39.25
2018-09-03T17:11:27.938Z,37.75
2018-09-03T17:16:31.626Z,37.00
2018-09-03T17:21:35.831Z,39.00
2018-09-03T17:26:41.131Z,36.50
2018-09-03T17:31:44.770Z,36.75
2018-09-03T17:36:49.275Z,36.00
2018-09-03T17:41:54.065Z,37.00
2018-09-03T17:46:58.906Z,36.25
2018-09-03T17:52:03.758Z,37.00
2018-09-03T17:57:08.111Z,36.50
2018-09-03T18:02:12.810Z,38.20
2018-09-03T18:07:17.521Z,39.25
2018-09-03T18:12:22.081Z,38.25
2018-09-03T18:17:26.758Z,37.40
2018-09-03T18:22:32.266Z,36.50
2018-09-03T18:59:44.823Z,36.20
2018-09-03T19:05:20.081Z,38.00
2018-09-03T21:14:30.577Z,34.00
2018-09-03T21:19:34.705Z,36.00
2018-09-03T21:24:39.412Z,37.00
2018-09-03T21:29:43.681Z,36.00
2018-09-03T21:34:48.549Z,38.25
2018-09-03T21:39:52.302Z,36.00
2018-09-03T21:44:56.182Z,35.80
2018-09-03T21:49:59.888Z,37.80
2018-09-03T21:55:07.497Z,39.50
2018-09-03T22:00:11.757Z,37.40
2018-09-03T22:05:15.597Z,35.20
2018-09-03T22:10:19.415Z,35.25
2018-09-03T22:15:23.118Z,36.00
2018-09-03T22:20:27.518Z,34.20
2018-09-03T22:25:31.291Z,33.75
2018-09-03T22:30:35.690Z,34.50
2018-09-03T22:35:40.416Z,35.00
2018-09-03T22:40:44.166Z,36.00
2018-09-03T22:45:47.989Z,35.00
2018-09-03T22:50:51.751Z,35.00
2018-09-03T22:55:55.549Z,35.00
2018-09-03T23:00:59.235Z,32.75
2018-09-03T23:06:03.055Z,35.75
2018-09-03T23:11:06.974Z,33.00
2018-09-03T23:16:10.646Z,35.00
2018-09-03T23:21:14.625Z,33.00
2018-09-03T23:26:18.407Z,34.75
2018-09-03T23:31:22.246Z,34.80
2018-09-03T23:36:25.874Z,31.20
2018-09-03T23:41:29.594Z,34.00
2018-09-03T23:46:33.465Z,32.50
2018-09-03T23:51:37.142Z,34.00
2018-09-03T23:56:40.806Z,33.40
